Time;durP1;ratioP1;P1;durP2;ratioP2;P2;SDS_P1;SDS_P2;PMS_P1;PMS_P2;Temp;Humidity;BMP_temperature;BMP_pressure;BME280_temperature;BME280_humidity;BME280_pressure;Samples;Min_cycle;Max_cycle;Signal;HPM_P1;HPM_P2
2023/06/30 00:00:36;;;;;;;13.23;5.85;;;;;;;19.22;92.22;100269.34;4916649;29;20191;-79
2023/06/30 00:03:39;;;;;;;9.90;5.70;;;;;;;19.22;92.42;100269.34;4916299;29;20047;-79
2023/06/30 00:06:44;;;;;;;10.57;6.18;;;;;;;19.17;92.25;100275.03;4916464;29;20516;-79
2023/06/30 00:09:48;;;;;;;9.45;6.20;;;;;;;19.15;92.82;100274.38;4916245;29;20074;-78
2023/06/30 00:12:51;;;;;;;9.85;6.10;;;;;;;19.17;92.55;100269.75;4916197;29;20051;-78
2023/06/30 00:15:55;;;;;;;10.02;6.38;;;;;;;19.20;93.18;100260.69;4916305;29;20055;-79
2023/06/30 00:18:58;;;;;;;10.73;6.90;;;;;;;19.25;93.74;100256.63;4915694;29;20047;-79
2023/06/30 00:22:02;;;;;;;10.82;7.03;;;;;;;19.22;93.97;100262.22;4916325;29;20090;-79
2023/06/30 00:25:06;;;;;;;12.05;6.47;;;;;;;19.15;95.29;100258.47;4916579;29;20051;-79
2023/06/30 00:28:09;;;;;;;13.65;7.57;;;;;;;19.12;96.14;100253.44;4919491;29;20042;-79
2023/06/30 00:31:12;;;;;;;13.65;7.60;;;;;;;19.12;96.69;100248.16;4919311;29;20055;-79
2023/06/30 00:34:15;;;;;;;15.50;7.63;;;;;;;19.12;96.83;100232.25;4908130;29;20187;-79
2023/06/30 00:37:19;;;;;;;14.88;7.63;;;;;;;19.13;97.32;100231.25;4907618;29;20105;-79
2023/06/30 00:40:23;;;;;;;12.98;7.47;;;;;;;19.11;96.76;100245.63;4908121;29;20099;-79
2023/06/30 00:43:26;;;;;;;14.35;7.50;;;;;;;19.09;96.93;100253.72;4907714;29;20103;-79
2023/06/30 00:46:29;;;;;;;10.75;7.18;;;;;;;19.07;96.79;100255.66;4919633;29;20070;-78
2023/06/30 00:49:33;;;;;;;11.23;8.25;;;;;;;19.03;97.11;100247.16;4908005;29;20135;-79
2023/06/30 00:52:37;;;;;;;14.32;7.15;;;;;;;19.13;96.96;100244.50;4896849;29;20529;-79
2023/06/30 00:55:41;;;;;;;12.02;7.47;;;;;;;19.09;97.57;100237.81;4919576;29;20536;-79
2023/06/30 00:58:44;;;;;;;12.52;8.75;;;;;;;19.03;98.24;100239.22;4907274;29;20127;-79
2023/06/30 01:02:21;;;;;;;13.60;8.55;;;;;;;19.10;97.71;100234.19;4907179;29;20505;-78
2023/06/30 01:06:05;;;;;;;15.68;9.73;;;;;;;19.03;98.46;100230.44;4918577;29;20042;-78
2023/06/30 01:09:15;;;;;;;11.85;7.80;;;;;;;18.98;98.74;100230.03;4912925;29;20082;-78
2023/06/30 01:12:18;;;;;;;12.93;8.13;;;;;;;19.04;98.55;100229.47;4919377;29;20047;-78
2023/06/30 01:15:22;;;;;;;11.65;9.30;;;;;;;19.04;98.42;100224.16;4907747;29;20087;-77
2023/06/30 01:18:26;;;;;;;17.17;8.60;;;;;;;19.14;97.90;100224.13;4919049;29;20090;-78
2023/06/30 01:21:30;;;;;;;14.32;8.73;;;;;;;19.14;98.04;100214.38;4919247;29;20047;-78
2023/06/30 01:24:36;;;;;;;14.27;8.50;;;;;;;19.09;98.46;100210.50;4896323;29;20059;-78
2023/06/30 01:27:40;;;;;;;14.32;9.18;;;;;;;19.05;98.69;100209.94;4918921;29;20070;-79
2023/06/30 01:30:45;;;;;;;13.80;8.98;;;;;;;19.02;99.29;100210.22;4907342;29;20633;-78
2023/06/30 01:33:48;;;;;;;12.15;8.98;;;;;;;18.98;99.59;100192.94;4907035;29;20401;-79
2023/06/30 01:36:52;;;;;;;10.88;7.78;;;;;;;19.00;99.90;100198.94;4916936;29;20139;-79
2023/06/30 01:39:56;;;;;;;17.52;9.32;;;;;;;19.00;99.96;100202.41;4907464;29;20178;-78
2023/06/30 01:43:00;;;;;;;11.50;8.85;;;;;;;18.97;99.94;100201.88;4918826;29;20111;-78
2023/06/30 01:46:04;;;;;;;13.55;9.65;;;;;;;18.99;99.62;100205.22;4918757;29;20434;-79
2023/06/30 01:49:11;;;;;;;12.32;8.70;;;;;;;19.13;98.63;100191.50;4907160;29;20059;-79
2023/06/30 01:52:16;;;;;;;11.35;8.82;;;;;;;19.13;99.04;100194.16;4906537;29;20062;-79
2023/06/30 01:55:19;;;;;;;13.23;9.13;;;;;;;19.14;99.11;100190.50;4918670;29;20051;-78
2023/06/30 01:58:22;;;;;;;14.77;9.38;;;;;;;19.12;99.21;100199.63;4918836;29;20055;-79
2023/06/30 02:01:25;;;;;;;16.27;9.15;;;;;;;19.09;99.26;100202.53;4896176;29;20462;-79
2023/06/30 02:04:29;;;;;;;14.60;9.52;;;;;;;18.95;100.00;100212.63;4906735;29;20055;-79
2023/06/30 02:07:32;;;;;;;12.73;10.10;;;;;;;19.10;100.00;100215.63;4906706;29;20046;-78
2023/06/30 02:10:36;;;;;;;13.43;10.00;;;;;;;19.21;98.97;100212.84;4918286;29;20505;-78
2023/06/30 02:13:39;;;;;;;14.10;9.68;;;;;;;19.22;98.21;100213.66;4906305;29;20047;-78
2023/06/30 02:16:42;;;;;;;15.43;9.75;;;;;;;19.13;98.91;100228.59;4917967;29;20135;-78
2023/06/30 02:19:46;;;;;;;15.48;10.13;;;;;;;19.18;99.45;100221.06;4906687;29;20050;-79
2023/06/30 02:22:50;;;;;;;15.10;10.13;;;;;;;19.03;100.00;100220.69;4906352;29;20055;-79
2023/06/30 02:25:57;;;;;;;14.38;10.65;;;;;;;19.09;100.00;100219.28;4906184;29;20123;-78
2023/06/30 02:29:02;;;;;;;19.90;14.55;;;;;;;19.03;100.00;100214.53;4917655;29;20135;-78
2023/06/30 02:32:05;;;;;;;18.40;15.25;;;;;;;19.01;100.00;100221.78;4895639;29;20051;-79
2023/06/30 02:35:09;;;;;;;17.13;13.25;;;;;;;18.97;100.00;100217.75;4906284;29;20133;-78
2023/06/30 02:38:12;;;;;;;15.23;11.88;;;;;;;19.01;100.00;100216.50;4917875;29;20099;-78
2023/06/30 02:41:16;;;;;;;19.20;14.10;;;;;;;18.94;100.00;100216.22;4917593;29;20160;-78
2023/06/30 02:44:19;;;;;;;16.55;13.88;;;;;;;18.93;100.00;100219.03;4917939;29;20138;-78
2023/06/30 02:47:22;;;;;;;21.58;14.43;;;;;;;18.94;100.00;100226.81;4905785;29;20099;-78
2023/06/30 02:50:31;;;;;;;16.75;13.70;;;;;;;18.97;100.00;100228.34;4905660;29;20091;-78
2023/06/30 02:53:35;;;;;;;15.85;11.43;;;;;;;18.95;100.00;100223.22;4904851;29;20052;-78
2023/06/30 02:56:38;;;;;;;15.70;12.07;;;;;;;18.95;100.00;100217.06;4905261;29;20050;-78
2023/06/30 02:59:42;;;;;;;17.42;13.70;;;;;;;18.93;100.00;100221.69;4905633;29;20051;-78
2023/06/30 03:02:46;;;;;;;18.45;13.00;;;;;;;18.95;100.00;100217.06;4905278;29;20520;-78
2023/06/30 03:05:51;;;;;;;19.23;14.55;;;;;;;18.90;100.00;100214.00;4905605;29;20096;-78
2023/06/30 03:08:54;;;;;;;16.08;13.73;;;;;;;19.01;100.00;100209.38;4905445;29;20066;-78
2023/06/30 03:12:00;;;;;;;17.35;13.70;;;;;;;19.12;100.00;100211.03;4916355;29;20062;-77
2023/06/30 03:15:05;;;;;;;19.00;13.52;;;;;;;19.09;100.00;100202.53;4917096;29;20055;-78
2023/06/30 03:18:10;;;;;;;19.00;14.18;;;;;;;19.06;100.00;100206.31;4905307;29;20055;-77
2023/06/30 03:21:13;;;;;;;18.85;15.80;;;;;;;18.97;100.00;100201.88;4916238;29;20047;-77
2023/06/30 03:24:17;;;;;;;21.13;15.93;;;;;;;18.94;100.00;100207.44;4917078;29;20529;-78
2023/06/30 03:27:20;;;;;;;17.85;15.43;;;;;;;18.97;100.00;100204.50;4905153;29;20401;-77
2023/06/30 03:30:24;;;;;;;20.77;15.85;;;;;;;18.91;100.00;100203.25;4916126;29;20047;-78
2023/06/30 03:33:28;;;;;;;21.75;19.05;;;;;;;18.89;100.00;100199.94;4894377;29;20054;-78
2023/06/30 03:36:32;;;;;;;21.58;18.33;;;;;;;18.89;100.00;100199.06;4916709;29;20051;-78
2023/06/30 03:39:36;;;;;;;23.02;17.55;;;;;;;18.83;100.00;100195.19;4916745;29;20143;-78
2023/06/30 03:42:39;;;;;;;21.50;18.55;;;;;;;18.84;100.00;100196.03;4916774;29;20054;-78
2023/06/30 03:45:42;;;;;;;28.05;20.35;;;;;;;18.86;100.00;100196.69;4904950;29;20058;-78
2023/06/30 03:48:46;;;;;;;25.83;22.80;;;;;;;18.84;100.00;100186.25;4916745;29;20106;-78
2023/06/30 03:51:49;;;;;;;30.20;23.10;;;;;;;18.85;100.00;100189.75;4915635;29;20055;-78
2023/06/30 03:54:53;;;;;;;26.02;21.23;;;;;;;18.84;100.00;100201.31;4904932;29;20047;-77
2023/06/30 03:57:56;;;;;;;27.45;24.08;;;;;;;18.88;100.00;100203.53;4916453;29;20474;-79
2023/06/30 04:01:00;;;;;;;34.63;29.17;;;;;;;18.86;100.00;100209.94;4895908;29;20051;-78
2023/06/30 04:04:03;;;;;;;31.30;26.73;;;;;;;18.94;100.00;100213.56;4914500;29;20047;-78
2023/06/30 04:07:07;;;;;;;27.65;24.02;;;;;;;18.96;100.00;100208.16;4897270;29;20076;-78
2023/06/30 04:10:10;;;;;;;32.78;25.38;;;;;;;18.90;100.00;100208.72;4899819;29;20052;-77
2023/06/30 04:13:14;;;;;;;25.38;21.42;;;;;;;18.95;98.02;100214.41;4897164;29;20052;-81
2023/06/30 04:16:17;;;;;;;20.50;15.85;;;;;;;18.97;96.79;100217.75;4896853;29;20060;-78
2023/06/30 04:19:21;;;;;;;17.20;12.60;;;;;;;18.90;94.70;100225.44;4902936;29;20112;-77
2023/06/30 04:22:24;;;;;;;14.75;11.63;;;;;;;18.89;93.45;100226.44;4915157;29;20078;-78
2023/06/30 04:25:27;;;;;;;12.70;10.15;;;;;;;18.92;93.62;100227.94;4916253;29;20078;-78
2023/06/30 04:28:31;;;;;;;18.15;12.70;;;;;;;18.84;95.59;100230.47;4903173;29;20048;-78
2023/06/30 04:31:35;;;;;;;14.05;9.95;;;;;;;18.71;95.93;100231.56;4896656;29;20052;-83
2023/06/30 04:34:39;;;;;;;9.38;7.85;;;;;;;18.62;95.64;100235.03;4897302;29;20473;-85
2023/06/30 04:37:42;;;;;;;9.65;7.22;;;;;;;18.57;95.87;100239.94;4896379;29;20577;-80
2023/06/30 04:41:11;;;;;;;9.30;5.68;;;;;;;18.67;94.51;100237.28;4897427;29;20060;-87
2023/06/30 04:48:11;;;;;;;8.02;5.25;;;;;;;18.57;96.27;100243.41;4897236;29;20123;-81
2023/06/30 04:51:15;;;;;;;8.15;4.95;;;;;;;18.63;94.65;100244.63;4896805;29;20128;-80
2023/06/30 04:54:19;;;;;;;12.48;5.95;;;;;;;18.62;95.05;100248.28;4896149;29;20077;-80
2023/06/30 04:57:23;;;;;;;6.80;4.53;;;;;;;18.54;96.61;100242.84;4894723;29;20052;-79
2023/06/30 05:00:27;;;;;;;5.85;3.85;;;;;;;18.40;97.08;100251.19;4894892;29;20046;-79
2023/06/30 05:03:31;;;;;;;8.38;4.28;;;;;;;18.53;96.72;100254.38;4897214;29;20051;-79
2023/06/30 05:06:34;;;;;;;4.20;3.40;;;;;;;18.52;94.40;100250.09;4897196;29;20067;-79
2023/06/30 05:09:38;;;;;;;4.95;2.72;;;;;;;18.27;91.93;100249.63;4897014;29;20079;-81
2023/06/30 05:12:43;;;;;;;5.18;3.03;;;;;;;18.44;91.38;100257.88;4899609;29;20185;-81
2023/06/30 05:15:47;;;;;;;4.93;3.17;;;;;;;18.32;90.20;100255.34;4878394;29;20056;-82
2023/06/30 05:18:50;;;;;;;4.65;3.10;;;;;;;18.38;90.43;100261.91;4899602;29;20119;-81
2023/06/30 05:21:55;;;;;;;4.07;2.90;;;;;;;18.31;90.74;100261.63;4900270;29;20530;-81
2023/06/30 05:25:05;;;;;;;3.75;3.13;;;;;;;18.23;91.79;100257.97;4900584;29;20059;-81
2023/06/30 05:28:08;;;;;;;5.50;3.28;;;;;;;18.39;91.97;100266.22;4900178;29;20501;-81
2023/06/30 05:31:12;;;;;;;5.05;2.90;;;;;;;18.33;90.84;100264.97;4900094;29;20103;-81
2023/06/30 05:35:05;;;;;;;4.05;3.17;;;;;;;18.34;91.17;100263.97;4899567;29;20047;-82
2023/06/30 05:38:09;;;;;;;3.85;3.05;;;;;;;18.28;90.74;100269.84;4900336;29;20127;-79
2023/06/30 05:41:13;;;;;;;4.30;3.35;;;;;;;18.13;89.77;100273.84;4899937;29;20474;-79
2023/06/30 05:44:16;;;;;;;5.75;2.95;;;;;;;18.20;89.81;100274.13;4899929;29;20067;-77
2023/06/30 05:47:20;;;;;;;6.10;3.60;;;;;;;17.96;89.54;100295.63;4899762;29;20534;-76
2023/06/30 05:50:23;;;;;;;4.72;2.60;;;;;;;18.06;89.99;100288.56;4899757;29;20047;-78
2023/06/30 05:53:26;;;;;;;3.72;2.38;;;;;;;17.80;88.16;100294.28;4899712;29;20525;-77
2023/06/30 05:56:30;;;;;;;3.72;1.80;;;;;;;17.55;86.46;100298.19;4899661;29;20056;-78
2023/06/30 05:59:33;;;;;;;2.30;1.73;;;;;;;17.05;89.46;100297.16;4899640;29;20087;-76
2023/06/30 06:02:37;;;;;;;4.78;1.60;;;;;;;16.80;89.95;100301.81;4899483;29;20127;-76
2023/06/30 06:05:40;;;;;;;3.83;1.65;;;;;;;17.03;88.61;100291.16;4887988;29;20513;-76
2023/06/30 06:08:48;;;;;;;4.45;2.42;;;;;;;16.91;88.39;100293.84;4899450;29;20047;-76
2023/06/30 06:11:51;;;;;;;8.88;2.03;;;;;;;17.17;87.81;100299.63;4899420;29;20482;-79
2023/06/30 06:14:55;;;;;;;4.13;1.88;;;;;;;17.31;86.83;100300.25;4899533;29;20060;-77
2023/06/30 06:17:58;;;;;;;4.50;1.60;;;;;;;17.43;85.44;100305.34;4899174;29;20044;-75
2023/06/30 06:21:05;;;;;;;3.25;1.40;;;;;;;17.49;84.89;100311.09;4887884;29;20467;-77
2023/06/30 06:24:08;;;;;;;4.45;1.42;;;;;;;17.44;84.50;100319.41;4898919;29;20419;-77
2023/06/30 06:27:12;;;;;;;4.30;1.75;;;;;;;17.47;84.00;100320.94;4898920;29;20051;-77
2023/06/30 06:30:15;;;;;;;5.13;1.80;;;;;;;17.64;84.61;100320.34;4898194;29;20517;-77
2023/06/30 06:33:19;;;;;;;4.63;1.65;;;;;;;17.73;84.96;100316.91;4898756;29;20055;-77
2023/06/30 06:36:22;;;;;;;4.40;1.80;;;;;;;17.35;83.29;100322.81;4898898;29;20107;-77
2023/06/30 06:39:25;;;;;;;3.53;1.92;;;;;;;17.31;83.78;100324.03;4898926;29;20120;-77
2023/06/30 06:42:29;;;;;;;5.30;1.70;;;;;;;17.50;83.42;100325.97;4898860;29;20131;-77
2023/06/30 06:45:32;;;;;;;3.28;1.80;;;;;;;17.58;84.58;100323.50;4887018;29;20048;-77
2023/06/30 06:48:37;;;;;;;6.38;1.60;;;;;;;17.70;85.33;100333.06;4898549;29;20052;-77
2023/06/30 06:51:40;;;;;;;2.83;1.52;;;;;;;17.71;84.29;100341.81;4898465;29;20059;-76
2023/06/30 06:54:44;;;;;;;3.58;1.45;;;;;;;17.82;83.07;100341.78;4898666;29;20135;-76
2023/06/30 06:57:48;;;;;;;3.17;1.13;;;;;;;17.89;82.44;100333.19;4898443;29;20415;-78
2023/06/30 07:00:52;;;;;;;2.88;1.10;;;;;;;17.94;81.91;100330.16;4898529;29;20576;-78
2023/06/30 07:03:55;;;;;;;3.88;1.20;;;;;;;17.95;82.76;100331.00;4898577;29;20106;-74
2023/06/30 07:06:59;;;;;;;7.22;1.33;;;;;;;17.94;82.88;100327.50;4898366;29;20048;-76
2023/06/30 07:10:03;;;;;;;6.10;1.30;;;;;;;17.88;83.63;100320.09;4898339;29;20050;-76
2023/06/30 07:13:06;;;;;;;3.13;1.00;;;;;;;17.56;80.81;100312.25;4898346;29;20051;-75
2023/06/30 07:16:10;;;;;;;3.40;1.30;;;;;;;17.71;82.31;100316.22;4897739;29;20047;-76
2023/06/30 07:20:05;;;;;;;2.42;1.20;;;;;;;17.40;83.73;100331.22;4898267;29;20131;-77
2023/06/30 07:23:08;;;;;;;3.08;1.13;;;;;;;16.81;83.64;100340.44;4897515;29;20039;-76
2023/06/30 07:26:11;;;;;;;2.80;1.00;;;;;;;16.65;85.48;100346.09;4898128;29;20050;-77
2023/06/30 07:29:15;;;;;;;3.25;1.10;;;;;;;16.58;85.19;100344.09;4898040;29;20052;-77
2023/06/30 07:32:18;;;;;;;3.03;0.95;;;;;;;16.87;84.84;100352.31;4898013;29;20570;-77
2023/06/30 07:35:22;;;;;;;3.08;1.23;;;;;;;17.16;84.46;100356.03;4896838;29;20054;-77
2023/06/30 07:38:26;;;;;;;3.90;1.40;;;;;;;17.11;84.24;100349.47;4897965;29;20100;-76
2023/06/30 07:41:34;;;;;;;3.63;1.48;;;;;;;17.13;83.53;100352.81;4897900;29;20095;-76
2023/06/30 07:44:37;;;;;;;2.78;1.10;;;;;;;17.41;81.70;100359.31;4897815;29;20055;-77
2023/06/30 07:47:42;;;;;;;3.95;1.30;;;;;;;17.53;84.03;100360.91;4898077;29;20498;-77
2023/06/30 07:50:45;;;;;;;3.28;1.20;;;;;;;17.44;81.28;100357.25;4886091;29;20054;-76
2023/06/30 07:53:50;;;;;;;3.35;1.30;;;;;;;17.52;80.31;100367.19;4896993;29;20051;-76
2023/06/30 07:56:54;;;;;;;5.20;1.05;;;;;;;17.51;80.06;100359.38;4897605;29;20048;-75
2023/06/30 07:59:57;;;;;;;2.33;1.08;;;;;;;17.72;80.30;100362.03;4897743;29;20083;-75
2023/06/30 08:03:00;;;;;;;2.80;1.30;;;;;;;17.89;78.59;100364.09;4897456;29;20047;-77
2023/06/30 08:06:04;;;;;;;4.20;1.50;;;;;;;17.96;77.18;100362.59;4886002;29;20040;-75
2023/06/30 08:09:08;;;;;;;2.47;0.95;;;;;;;17.96;77.44;100361.75;4897144;29;20100;-75
2023/06/30 08:12:12;;;;;;;5.25;1.30;;;;;;;17.55;78.74;100356.34;4897269;29;20048;-75
2023/06/30 08:15:16;;;;;;;5.45;1.40;;;;;;;17.67;78.53;100360.59;4885868;29;20125;-75
2023/06/30 08:18:20;;;;;;;5.13;1.85;;;;;;;17.35;77.49;100362.47;4885773;29;20190;-76
2023/06/30 08:21:24;;;;;;;4.93;1.42;;;;;;;17.35;76.86;100371.22;4897218;29;20071;-74
2023/06/30 08:24:29;;;;;;;5.22;1.50;;;;;;;17.23;76.67;100376.69;4897361;29;20114;-74
2023/06/30 08:27:33;;;;;;;4.45;1.80;;;;;;;16.93;77.78;100379.06;4897280;29;20144;-75
2023/06/30 08:30:36;;;;;;;5.55;1.88;;;;;;;17.38;76.84;100372.78;4897696;29;20055;-78
2023/06/30 08:33:41;;;;;;;5.30;1.50;;;;;;;17.64;74.29;100367.94;4897164;29;20137;-77
2023/06/30 08:36:44;;;;;;;5.05;2.05;;;;;;;17.24;75.19;100379.22;4897418;29;20510;-76
2023/06/30 08:39:47;;;;;;;5.10;1.73;;;;;;;17.37;74.29;100374.59;4897238;29;20067;-77
2023/06/30 08:42:53;;;;;;;5.68;2.17;;;;;;;17.12;74.24;100388.13;4897130;29;20051;-74
2023/06/30 08:45:59;;;;;;;5.00;1.92;;;;;;;17.07;75.41;100371.81;4885849;29;20131;-74
2023/06/30 08:49:02;;;;;;;6.68;2.03;;;;;;;17.47;74.04;100382.59;4900738;29;20055;-74
2023/06/30 08:52:06;;;;;;;4.18;1.60;;;;;;;17.68;73.62;100393.19;4900344;29;20067;-76
2023/06/30 08:55:10;;;;;;;3.40;1.42;;;;;;;17.69;71.08;100383.44;4900891;29;20070;-77
2023/06/30 08:58:13;;;;;;;3.92;1.63;;;;;;;17.07;70.62;100385.03;4900578;29;20051;-76
2023/06/30 09:01:17;;;;;;;7.72;1.58;;;;;;;17.15;68.25;100395.81;4900289;29;20047;-74
2023/06/30 09:04:23;;;;;;;6.00;1.58;;;;;;;17.32;66.26;100395.25;4900581;29;20100;-74
2023/06/30 09:07:33;;;;;;;3.45;1.58;;;;;;;17.50;66.53;100400.00;4900186;29;20133;-75
2023/06/30 09:10:38;;;;;;;2.83;1.10;;;;;;;17.46;63.04;100394.13;4900479;29;20075;-76
2023/06/30 09:13:42;;;;;;;2.60;1.15;;;;;;;17.58;64.53;100397.53;4900420;29;20050;-75
2023/06/30 09:16:47;;;;;;;3.45;1.30;;;;;;;17.58;64.05;100402.81;4900177;29;20052;-75
2023/06/30 09:19:50;;;;;;;4.13;1.73;;;;;;;17.33;64.14;100393.47;4888805;29;20047;-77
2023/06/30 09:22:55;;;;;;;7.70;1.48;;;;;;;17.70;64.37;100393.88;4899896;29;20071;-77
2023/06/30 09:25:58;;;;;;;6.18;1.60;;;;;;;17.88;62.31;100389.69;4888297;29;20131;-76
2023/06/30 09:29:02;;;;;;;7.13;2.38;;;;;;;17.90;62.64;100384.28;4899914;29;20045;-76
2023/06/30 09:32:06;;;;;;;4.38;2.35;;;;;;;17.70;64.49;100393.88;4900096;29;20055;-76
2023/06/30 09:35:14;;;;;;;4.93;2.17;;;;;;;18.01;64.02;100396.59;4899808;29;20540;-76
2023/06/30 09:38:19;;;;;;;6.05;3.08;;;;;;;17.92;65.94;100405.31;4899662;29;20120;-77
2023/06/30 09:41:26;;;;;;;7.07;2.78;;;;;;;17.96;66.08;100385.56;4899434;29;20100;-77
2023/06/30 09:44:37;;;;;;;5.88;3.33;;;;;;;18.52;66.89;100388.59;4899046;29;20044;-77
2023/06/30 09:48:10;;;;;;;10.50;3.20;;;;;;;18.71;64.77;100385.16;4899007;29;20131;-79
2023/06/30 09:51:19;;;;;;;5.40;2.50;;;;;;;18.93;63.00;100376.19;4898717;29;20063;-76
2023/06/30 09:54:24;;;;;;;7.28;2.95;;;;;;;18.73;62.54;100380.59;4899472;29;20550;-76
2023/06/30 09:57:27;;;;;;;7.38;3.70;;;;;;;18.27;61.06;100367.88;4898969;29;20439;-75
2023/06/30 10:00:30;;;;;;;5.63;3.00;;;;;;;18.38;61.11;100380.16;4899549;29;20411;-75
2023/06/30 10:03:34;;;;;;;5.97;3.03;;;;;;;18.67;60.20;100373.19;4899295;29;20047;-76
2023/06/30 10:06:38;;;;;;;5.40;3.45;;;;;;;18.94;58.42;100371.72;4899238;29;20411;-76
2023/06/30 10:09:46;;;;;;;8.80;3.63;;;;;;;18.39;58.42;100366.00;4899282;29;20095;-76
2023/06/30 10:12:50;;;;;;;5.32;3.53;;;;;;;18.51;56.99;100360.44;4899193;29;20128;-80
2023/06/30 10:15:54;;;;;;;7.03;3.25;;;;;;;18.89;57.80;100365.97;4887560;29;20569;-75
2023/06/30 10:19:00;;;;;;;9.00;3.63;;;;;;;19.11;57.35;100359.56;4899208;29;20570;-81
2023/06/30 10:22:03;;;;;;;7.82;4.18;;;;;;;18.75;58.07;100362.75;4899273;29;20051;-76
2023/06/30 10:25:10;;;;;;;7.63;4.47;;;;;;;18.67;58.91;100356.44;4899544;29;20047;-76
2023/06/30 10:28:14;;;;;;;7.65;4.60;;;;;;;18.94;58.14;100369.06;4898987;29;20087;-76
2023/06/30 10:31:17;;;;;;;6.32;4.57;;;;;;;18.44;59.25;100367.25;4887738;29;20120;-78
2023/06/30 10:34:22;;;;;;;7.05;4.13;;;;;;;18.52;59.21;100371.88;4899068;29;20055;-75
2023/06/30 10:37:26;;;;;;;5.70;3.70;;;;;;;18.79;58.36;100369.47;4898688;29;20194;-75
2023/06/30 10:40:30;;;;;;;8.38;4.25;;;;;;;18.66;57.25;100368.00;4898269;29;20047;-75
2023/06/30 10:44:09;;;;;;;9.75;4.00;;;;;;;18.92;57.75;100363.03;4898634;29;20047;-74
2023/06/30 10:47:13;;;;;;;8.75;3.97;;;;;;;18.81;55.19;100350.78;4898853;29;20276;-78
2023/06/30 10:50:19;;;;;;;7.00;3.90;;;;;;;18.87;55.03;100354.69;4898592;29;20391;-76
2023/06/30 10:53:23;;;;;;;4.93;3.15;;;;;;;18.62;53.65;100359.50;4898817;29;20063;-75
2023/06/30 10:56:33;;;;;;;6.25;3.67;;;;;;;18.98;57.92;100357.19;4898333;29;20095;-75
2023/06/30 10:59:41;;;;;;;4.65;3.28;;;;;;;19.41;55.79;100350.66;4898294;29;20050;-73
2023/06/30 11:02:59;;;;;;;7.00;3.67;;;;;;;19.57;55.53;100342.13;4896732;29;20139;-76
2023/06/30 11:06:17;;;;;;;14.52;5.03;;;;;;;19.58;53.49;100346.44;4894590;29;20537;-74
2023/06/30 11:09:21;;;;;;;6.78;3.85;;;;;;;19.76;55.51;100338.63;4897292;29;20055;-74
2023/06/30 11:12:27;;;;;;;8.05;3.78;;;;;;;19.80;55.21;100332.03;4897492;29;20108;-77
2023/06/30 11:15:39;;;;;;;5.07;3.00;;;;;;;20.14;53.66;100314.56;4897468;29;20051;-73
2023/06/30 11:18:57;;;;;;;6.78;3.03;;;;;;;20.33;51.27;100312.81;4897795;29;20594;-72
2023/06/30 11:22:30;;;;;;;5.20;2.58;;;;;;;20.57;51.03;100315.75;4898259;29;20066;-76
2023/06/30 11:25:34;;;;;;;5.43;2.72;;;;;;;20.87;50.70;100311.09;4898342;29;20462;-70
2023/06/30 11:28:39;;;;;;;6.32;2.78;;;;;;;20.96;50.75;100312.81;4897837;29;20163;-74
2023/06/30 11:31:43;;;;;;;6.47;2.90;;;;;;;21.14;49.95;100302.16;4898089;29;20063;-74
2023/06/30 11:34:49;;;;;;;6.40;2.33;;;;;;;21.03;50.55;100297.09;4897911;29;20051;-73
2023/06/30 11:37:55;;;;;;;6.95;2.70;;;;;;;20.90;49.54;100295.66;4896876;29;20052;-72
2023/06/30 11:41:00;;;;;;;6.65;3.10;;;;;;;20.77;49.75;100300.53;4897122;29;20103;-72
2023/06/30 11:44:04;;;;;;;6.10;2.50;;;;;;;20.93;50.14;100293.66;4897292;29;20052;-72
2023/06/30 11:47:07;;;;;;;4.47;2.30;;;;;;;21.08;47.77;100292.97;4897536;29;20459;-73
2023/06/30 11:50:11;;;;;;;5.68;2.20;;;;;;;20.96;47.18;100288.88;4897619;29;20099;-72
2023/06/30 11:53:15;;;;;;;5.55;2.08;;;;;;;20.51;47.80;100302.22;4897614;29;20091;-72
2023/06/30 11:56:19;;;;;;;6.38;2.42;;;;;;;20.74;48.54;100295.53;4897728;29;20524;-73
2023/06/30 11:59:24;;;;;;;6.25;2.25;;;;;;;21.03;48.52;100289.97;4897662;29;20090;-72
2023/06/30 12:02:27;;;;;;;6.18;2.28;;;;;;;21.19;47.71;100285.78;4897537;29;20100;-72
2023/06/30 12:05:39;;;;;;;7.57;2.15;;;;;;;21.17;46.38;100280.59;4897394;29;20418;-75
2023/06/30 12:08:43;;;;;;;5.13;1.77;;;;;;;20.73;47.12;100282.38;4897394;29;20469;-72
2023/06/30 12:11:48;;;;;;;3.97;1.83;;;;;;;20.95;47.86;100281.91;4897166;29;20052;-71
2023/06/30 12:14:52;;;;;;;6.82;1.90;;;;;;;21.09;46.18;100284.03;4897244;29;20462;-71
2023/06/30 12:17:56;;;;;;;7.53;1.77;;;;;;;21.29;48.08;100270.56;4897039;29;20410;-71
2023/06/30 12:20:59;;;;;;;4.13;1.60;;;;;;;21.30;45.62;100272.22;4897383;29;20506;-71
2023/06/30 12:24:07;;;;;;;6.60;1.73;;;;;;;21.39;45.38;100258.00;4901182;29;20055;-72
2023/06/30 12:27:12;;;;;;;12.30;1.83;;;;;;;21.62;43.69;100263.63;4901122;29;20052;-74
2023/06/30 12:30:17;;;;;;;5.25;1.75;;;;;;;21.46;44.41;100268.84;4901299;29;20048;-72
2023/06/30 12:33:22;;;;;;;3.55;1.40;;;;;;;21.83;44.86;100268.56;4901283;29;20055;-73
2023/06/30 12:36:30;;;;;;;5.20;2.28;;;;;;;21.85;43.14;100265.72;4901027;29;20101;-74
2023/06/30 12:39:35;;;;;;;4.18;1.40;;;;;;;22.26;42.50;100272.09;4900849;29;20052;-73
2023/06/30 12:42:44;;;;;;;8.48;2.22;;;;;;;21.38;43.31;100261.66;4900927;29;20063;-72
2023/06/30 12:45:47;;;;;;;3.65;1.70;;;;;;;21.97;44.81;100257.31;4900752;29;20046;-71
2023/06/30 12:48:50;;;;;;;5.78;2.17;;;;;;;22.26;45.13;100267.59;4900990;29;20567;-73
2023/06/30 12:51:57;;;;;;;6.50;1.75;;;;;;;22.23;43.85;100253.75;4900491;29;20108;-73
2023/06/30 12:55:01;;;;;;;5.13;1.73;;;;;;;22.64;44.18;100254.66;4900684;29;20047;-73
2023/06/30 12:58:05;;;;;;;3.25;1.70;;;;;;;22.93;43.59;100256.88;4900382;29;20104;-71
2023/06/30 13:01:08;;;;;;;4.85;2.13;;;;;;;22.38;42.70;100252.13;4900507;29;20517;-73
2023/06/30 13:04:12;;;;;;;7.25;1.85;;;;;;;22.37;42.83;100257.66;4900682;29;20063;-71
2023/06/30 13:07:16;;;;;;;4.63;1.95;;;;;;;23.08;41.86;100258.91;4899534;29;20051;-72
2023/06/30 13:10:21;;;;;;;6.47;1.63;;;;;;;23.70;40.52;100250.28;4899338;29;20418;-72
2023/06/30 13:13:25;;;;;;;4.30;1.58;;;;;;;23.96;39.83;100245.50;4900328;29;20047;-72
2023/06/30 13:16:28;;;;;;;6.13;1.52;;;;;;;24.11;39.19;100232.25;4900155;29;20044;-71
2023/06/30 13:19:32;;;;;;;3.70;1.30;;;;;;;24.22;40.05;100239.88;4900598;29;20059;-72
2023/06/30 13:22:36;;;;;;;4.63;1.30;;;;;;;24.65;40.17;100229.59;4898959;29;20051;-72
2023/06/30 13:25:40;;;;;;;4.22;1.65;;;;;;;23.96;39.62;100244.66;4900219;29;20478;-71
2023/06/30 13:28:44;;;;;;;4.78;1.75;;;;;;;23.27;41.41;100242.53;4900186;29;20144;-71
2023/06/30 13:31:55;;;;;;;5.93;1.70;;;;;;;23.09;42.00;100242.72;4900401;29;20415;-71
2023/06/30 13:35:00;;;;;;;5.35;1.70;;;;;;;23.35;40.71;100231.81;4900306;29;20128;-71
2023/06/30 13:38:03;;;;;;;7.10;1.92;;;;;;;22.97;41.97;100228.91;4899770;29;20281;-71
2023/06/30 13:41:07;;;;;;;4.88;2.47;;;;;;;22.86;42.50;100225.72;4918736;29;20513;-72
2023/06/30 13:44:10;;;;;;;6.18;1.30;;;;;;;22.47;42.94;100240.50;4918774;29;20099;-71
2023/06/30 13:47:13;;;;;;;4.65;1.60;;;;;;;22.80;42.89;100229.88;4918717;29;20096;-71
2023/06/30 13:50:17;;;;;;;3.80;1.67;;;;;;;23.09;41.98;100225.88;4918840;29;20470;-71
2023/06/30 13:53:21;;;;;;;5.78;1.60;;;;;;;23.16;42.09;100216.19;4918691;29;20087;-71
2023/06/30 13:56:26;;;;;;;7.05;1.92;;;;;;;23.93;41.45;100207.63;4918362;29;20569;-71
2023/06/30 13:59:30;;;;;;;5.28;2.10;;;;;;;23.72;41.71;100217.09;4918619;29;20050;-72
2023/06/30 14:02:34;;;;;;;5.63;1.77;;;;;;;23.57;41.28;100222.25;4906937;29;20187;-71
2023/06/30 14:05:39;;;;;;;5.47;1.70;;;;;;;22.62;41.32;100227.38;4918428;29;20497;-71
2023/06/30 14:08:42;;;;;;;4.68;1.70;;;;;;;23.13;41.08;100224.53;4918398;29;20121;-71
2023/06/30 14:11:46;;;;;;;3.17;1.63;;;;;;;23.10;42.18;100222.19;4918050;29;20047;-71
2023/06/30 14:14:50;;;;;;;6.80;1.75;;;;;;;23.21;40.95;100219.19;4918359;29;20047;-71
2023/06/30 14:18:03;;;;;;;5.40;2.38;;;;;;;23.85;40.40;100214.69;4918097;29;20047;-71